sensor_id;sensor_type;location;lat;lon;timestamp;temperature;humidity
41060;DHT22;26811;53.160;8.202;2022-09-16T00:03:27;10.80;99.90
41060;DHT22;26811;53.160;8.202;2022-09-16T00:08:28;10.70;99.90
41060;DHT22;26811;53.160;8.202;2022-09-16T00:13:28;10.80;99.90
41060;DHT22;26811;53.160;8.202;2022-09-16T00:18:29;10.80;99.90
41060;DHT22;26811;53.160;8.202;2022-09-16T00:23:30;10.90;99.90
41060;DHT22;26811;53.160;8.202;2022-09-16T00:28:30;11.00;99.90
41060;DHT22;26811;53.160;8.202;2022-09-16T00:33:31;11.10;99.90
41060;DHT22;26811;53.160;8.202;2022-09-16T00:38:32;11.10;99.90
41060;DHT22;26811;53.160;8.202;2022-09-16T00:43:56;11.00;99.90
41060;DHT22;26811;53.160;8.202;2022-09-16T00:49:02;11.00;99.90
41060;DHT22;26811;53.160;8.202;2022-09-16T00:54:05;11.00;99.90
41060;DHT22;26811;53.160;8.202;2022-09-16T00:59:14;11.00;99.90
41060;DHT22;26811;53.160;8.202;2022-09-16T01:04:20;11.10;99.90
41060;DHT22;26811;53.160;8.202;2022-09-16T01:09:22;11.10;99.90
41060;DHT22;26811;53.160;8.202;2022-09-16T01:14:25;11.20;99.90
41060;DHT22;26811;53.160;8.202;2022-09-16T01:36:20;11.20;99.90
41060;DHT22;26811;53.160;8.202;2022-09-16T01:57:23;11.00;99.90
41060;DHT22;26811;53.160;8.202;2022-09-16T02:03:01;11.10;99.90
41060;DHT22;26811;53.160;8.202;2022-09-16T02:08:14;11.00;99.90
41060;DHT22;26811;53.160;8.202;2022-09-16T02:13:25;11.10;99.90
41060;DHT22;26811;53.160;8.202;2022-09-16T02:18:31;11.10;99.90
41060;DHT22;26811;53.160;8.202;2022-09-16T02:23:37;11.00;99.90
41060;DHT22;26811;53.160;8.202;2022-09-16T02:28:41;11.00;99.90
41060;DHT22;26811;53.160;8.202;2022-09-16T02:34:05;11.00;99.90
41060;DHT22;26811;53.160;8.202;2022-09-16T02:39:12;10.90;99.90
41060;DHT22;26811;53.160;8.202;2022-09-16T02:44:14;11.00;99.90
41060;DHT22;26811;53.160;8.202;2022-09-16T02:59:46;11.00;99.90
41060;DHT22;26811;53.160;8.202;2022-09-16T03:04:48;11.00;99.90
41060;DHT22;26811;53.160;8.202;2022-09-16T03:09:49;11.00;99.90
41060;DHT22;26811;53.160;8.202;2022-09-16T03:26:15;10.90;99.90
41060;DHT22;26811;53.160;8.202;2022-09-16T03:31:29;10.70;99.90
41060;DHT22;26811;53.160;8.202;2022-09-16T03:36:33;10.60;99.90
41060;DHT22;26811;53.160;8.202;2022-09-16T03:41:35;10.70;99.90
41060;DHT22;26811;53.160;8.202;2022-09-16T03:46:36;10.60;99.90
41060;DHT22;26811;53.160;8.202;2022-09-16T03:51:36;10.50;99.90
41060;DHT22;26811;53.160;8.202;2022-09-16T03:56:37;10.60;99.90
41060;DHT22;26811;53.160;8.202;2022-09-16T04:01:37;10.60;99.90
41060;DHT22;26811;53.160;8.202;2022-09-16T04:06:38;10.50;99.90
41060;DHT22;26811;53.160;8.202;2022-09-16T04:11:39;10.40;99.90
41060;DHT22;26811;53.160;8.202;2022-09-16T04:16:40;10.30;99.90
41060;DHT22;26811;53.160;8.202;2022-09-16T04:21:41;10.30;99.90
41060;DHT22;26811;53.160;8.202;2022-09-16T04:26:42;10.30;99.90
41060;DHT22;26811;53.160;8.202;2022-09-16T04:31:43;10.20;99.90
41060;DHT22;26811;53.160;8.202;2022-09-16T04:36:43;10.10;99.90
41060;DHT22;26811;53.160;8.202;2022-09-16T04:41:44;10.10;99.90
41060;DHT22;26811;53.160;8.202;2022-09-16T04:46:45;10.10;99.90
41060;DHT22;26811;53.160;8.202;2022-09-16T04:51:45;10.00;99.90
41060;DHT22;26811;53.160;8.202;2022-09-16T04:56:46;10.00;99.90
41060;DHT22;26811;53.160;8.202;2022-09-16T05:01:46;10.00;99.90
41060;DHT22;26811;53.160;8.202;2022-09-16T05:06:47;9.90;99.90
41060;DHT22;26811;53.160;8.202;2022-09-16T05:11:48;9.90;99.90
41060;DHT22;26811;53.160;8.202;2022-09-16T05:16:49;9.90;99.90
41060;DHT22;26811;53.160;8.202;2022-09-16T05:21:49;9.90;99.90
41060;DHT22;26811;53.160;8.202;2022-09-16T05:26:50;10.00;99.90
41060;DHT22;26811;53.160;8.202;2022-09-16T05:31:50;10.00;99.90
41060;DHT22;26811;53.160;8.202;2022-09-16T05:36:51;9.90;99.90
41060;DHT22;26811;53.160;8.202;2022-09-16T05:41:56;10.00;99.90
41060;DHT22;26811;53.160;8.202;2022-09-16T05:46:57;10.00;99.90
41060;DHT22;26811;53.160;8.202;2022-09-16T05:51:57;10.00;99.90
41060;DHT22;26811;53.160;8.202;2022-09-16T05:56:58;10.00;99.90
41060;DHT22;26811;53.160;8.202;2022-09-16T06:01:58;10.10;99.90
41060;DHT22;26811;53.160;8.202;2022-09-16T06:06:59;10.20;99.90
41060;DHT22;26811;53.160;8.202;2022-09-16T06:12:01;10.30;99.90
41060;DHT22;26811;53.160;8.202;2022-09-16T06:17:02;10.40;99.90
41060;DHT22;26811;53.160;8.202;2022-09-16T06:22:02;10.50;99.90
41060;DHT22;26811;53.160;8.202;2022-09-16T06:27:03;10.80;99.90
41060;DHT22;26811;53.160;8.202;2022-09-16T06:32:04;11.00;99.90
41060;DHT22;26811;53.160;8.202;2022-09-16T06:37:04;11.00;99.90
41060;DHT22;26811;53.160;8.202;2022-09-16T06:42:06;11.00;99.90
41060;DHT22;26811;53.160;8.202;2022-09-16T06:47:07;11.00;99.90
41060;DHT22;26811;53.160;8.202;2022-09-16T06:52:08;11.40;99.90
41060;DHT22;26811;53.160;8.202;2022-09-16T06:57:11;12.20;99.90
41060;DHT22;26811;53.160;8.202;2022-09-16T07:02:11;13.40;99.90
41060;DHT22;26811;53.160;8.202;2022-09-16T07:07:12;14.40;99.90
41060;DHT22;26811;53.160;8.202;2022-09-16T07:12:12;14.10;99.90
41060;DHT22;26811;53.160;8.202;2022-09-16T07:17:13;13.10;99.90
41060;DHT22;26811;53.160;8.202;2022-09-16T07:22:13;13.40;99.90
41060;DHT22;26811;53.160;8.202;2022-09-16T07:27:14;14.70;99.90
41060;DHT22;26811;53.160;8.202;2022-09-16T07:32:14;15.60;99.90
41060;DHT22;26811;53.160;8.202;2022-09-16T07:37:15;15.90;99.90
41060;DHT22;26811;53.160;8.202;2022-09-16T07:42:17;16.50;99.90
41060;DHT22;26811;53.160;8.202;2022-09-16T07:47:19;16.90;99.90
41060;DHT22;26811;53.160;8.202;2022-09-16T07:52:19;17.50;99.90
41060;DHT22;26811;53.160;8.202;2022-09-16T07:57:20;18.10;99.90
41060;DHT22;26811;53.160;8.202;2022-09-16T08:02:21;18.40;99.90
41060;DHT22;26811;53.160;8.202;2022-09-16T08:07:21;18.60;99.90
41060;DHT22;26811;53.160;8.202;2022-09-16T08:12:22;18.50;99.90
41060;DHT22;26811;53.160;8.202;2022-09-16T08:17:22;18.20;99.90
41060;DHT22;26811;53.160;8.202;2022-09-16T08:22:23;18.50;99.90
41060;DHT22;26811;53.160;8.202;2022-09-16T08:27:25;18.60;99.90
41060;DHT22;26811;53.160;8.202;2022-09-16T08:32:25;18.20;99.90
41060;DHT22;26811;53.160;8.202;2022-09-16T08:37:26;18.00;99.90
41060;DHT22;26811;53.160;8.202;2022-09-16T08:52:43;17.50;99.90
41060;DHT22;26811;53.160;8.202;2022-09-16T08:58:17;17.40;99.90
41060;DHT22;26811;53.160;8.202;2022-09-16T09:03:37;17.80;99.90
41060;DHT22;26811;53.160;8.202;2022-09-16T09:08:57;17.80;99.90
41060;DHT22;26811;53.160;8.202;2022-09-16T09:14:33;18.00;99.90
41060;DHT22;26811;53.160;8.202;2022-09-16T09:19:52;17.50;99.90
41060;DHT22;26811;53.160;8.202;2022-09-16T09:30:23;17.00;99.90
41060;DHT22;26811;53.160;8.202;2022-09-16T09:40:46;17.40;99.90
41060;DHT22;26811;53.160;8.202;2022-09-16T09:46:01;17.20;99.90
41060;DHT22;26811;53.160;8.202;2022-09-16T09:51:15;17.20;99.90
41060;DHT22;26811;53.160;8.202;2022-09-16T10:01:22;18.10;99.90
41060;DHT22;26811;53.160;8.202;2022-09-16T10:06:28;17.90;99.90
41060;DHT22;26811;53.160;8.202;2022-09-16T10:11:30;17.40;99.90
41060;DHT22;26811;53.160;8.202;2022-09-16T10:16:35;16.50;99.90
41060;DHT22;26811;53.160;8.202;2022-09-16T10:21:46;15.80;99.90
41060;DHT22;26811;53.160;8.202;2022-09-16T10:26:47;15.30;99.90
41060;DHT22;26811;53.160;8.202;2022-09-16T10:31:48;15.00;99.90
41060;DHT22;26811;53.160;8.202;2022-09-16T10:37:13;15.20;99.90
41060;DHT22;26811;53.160;8.202;2022-09-16T10:42:25;15.50;99.90
41060;DHT22;26811;53.160;8.202;2022-09-16T10:47:31;16.00;99.90
41060;DHT22;26811;53.160;8.202;2022-09-16T10:52:44;16.20;99.90
41060;DHT22;26811;53.160;8.202;2022-09-16T10:57:45;16.60;99.90
41060;DHT22;26811;53.160;8.202;2022-09-16T11:14:00;16.80;99.90
41060;DHT22;26811;53.160;8.202;2022-09-16T11:19:12;15.90;99.90
41060;DHT22;26811;53.160;8.202;2022-09-16T11:24:23;14.70;99.90
41060;DHT22;26811;53.160;8.202;2022-09-16T11:40:37;15.10;99.90
41060;DHT22;26811;53.160;8.202;2022-09-16T11:45:51;15.50;99.90
41060;DHT22;26811;53.160;8.202;2022-09-16T11:56:26;15.50;99.90
41060;DHT22;26811;53.160;8.202;2022-09-16T12:01:41;14.80;99.90
41060;DHT22;26811;53.160;8.202;2022-09-16T12:12:18;14.40;99.90
41060;DHT22;26811;53.160;8.202;2022-09-16T12:17:23;14.80;99.90
41060;DHT22;26811;53.160;8.202;2022-09-16T12:22:51;15.00;99.90
41060;DHT22;26811;53.160;8.202;2022-09-16T12:33:05;14.90;99.90
41060;DHT22;26811;53.160;8.202;2022-09-16T12:38:16;14.90;99.90
41060;DHT22;26811;53.160;8.202;2022-09-16T12:48:47;15.10;99.90
41060;DHT22;26811;53.160;8.202;2022-09-16T12:59:25;15.30;99.90
41060;DHT22;26811;53.160;8.202;2022-09-16T13:04:36;14.50;99.90
41060;DHT22;26811;53.160;8.202;2022-09-16T13:09:38;14.10;99.90
41060;DHT22;26811;53.160;8.202;2022-09-16T13:14:46;14.20;99.90
41060;DHT22;26811;53.160;8.202;2022-09-16T13:19:52;14.30;99.90
41060;DHT22;26811;53.160;8.202;2022-09-16T13:25:18;14.50;99.90
41060;DHT22;26811;53.160;8.202;2022-09-16T13:30:34;14.40;99.90
41060;DHT22;26811;53.160;8.202;2022-09-16T13:35:38;14.10;99.90
41060;DHT22;26811;53.160;8.202;2022-09-16T13:40:40;14.00;99.90
41060;DHT22;26811;53.160;8.202;2022-09-16T13:46:03;14.00;99.90
41060;DHT22;26811;53.160;8.202;2022-09-16T13:51:14;14.00;99.90
41060;DHT22;26811;53.160;8.202;2022-09-16T14:02:12;14.20;99.90
41060;DHT22;26811;53.160;8.202;2022-09-16T14:12:56;14.30;99.90
41060;DHT22;26811;53.160;8.202;2022-09-16T14:18:00;14.40;99.90
41060;DHT22;26811;53.160;8.202;2022-09-16T14:23:05;14.40;99.90
41060;DHT22;26811;53.160;8.202;2022-09-16T14:28:20;14.30;99.90
41060;DHT22;26811;53.160;8.202;2022-09-16T14:33:24;13.80;99.90
41060;DHT22;26811;53.160;8.202;2022-09-16T14:38:36;13.60;99.90
41060;DHT22;26811;53.160;8.202;2022-09-16T14:43:40;13.50;99.90
41060;DHT22;26811;53.160;8.202;2022-09-16T14:48:41;13.20;99.90
41060;DHT22;26811;53.160;8.202;2022-09-16T14:53:52;12.90;99.90
41060;DHT22;26811;53.160;8.202;2022-09-16T14:58:56;12.60;99.90
41060;DHT22;26811;53.160;8.202;2022-09-16T15:04:06;12.40;99.90
41060;DHT22;26811;53.160;8.202;2022-09-16T15:14:56;12.20;99.90
41060;DHT22;26811;53.160;8.202;2022-09-16T15:19:58;12.20;99.90
41060;DHT22;26811;53.160;8.202;2022-09-16T15:24:59;12.10;99.90
41060;DHT22;26811;53.160;8.202;2022-09-16T15:30:00;12.10;99.90
41060;DHT22;26811;53.160;8.202;2022-09-16T15:35:21;12.00;99.90
41060;DHT22;26811;53.160;8.202;2022-09-16T15:45:26;12.00;99.90
41060;DHT22;26811;53.160;8.202;2022-09-16T15:50:30;12.00;99.90
41060;DHT22;26811;53.160;8.202;2022-09-16T15:55:42;12.00;99.90
41060;DHT22;26811;53.160;8.202;2022-09-16T16:05:59;12.00;99.90
41060;DHT22;26811;53.160;8.202;2022-09-16T16:11:18;12.10;99.90
41060;DHT22;26811;53.160;8.202;2022-09-16T16:16:19;12.10;99.90
41060;DHT22;26811;53.160;8.202;2022-09-16T16:21:19;12.10;99.90
41060;DHT22;26811;53.160;8.202;2022-09-16T16:26:20;12.10;99.90
41060;DHT22;26811;53.160;8.202;2022-09-16T16:31:21;12.10;99.90
41060;DHT22;26811;53.160;8.202;2022-09-16T16:36:21;12.00;99.90
41060;DHT22;26811;53.160;8.202;2022-09-16T16:41:26;12.00;99.90
41060;DHT22;26811;53.160;8.202;2022-09-16T16:46:29;12.00;99.90
41060;DHT22;26811;53.160;8.202;2022-09-16T16:51:30;11.90;99.90
41060;DHT22;26811;53.160;8.202;2022-09-16T16:56:30;11.90;99.90
41060;DHT22;26811;53.160;8.202;2022-09-16T17:01:31;11.80;99.90
41060;DHT22;26811;53.160;8.202;2022-09-16T17:06:33;11.70;99.90
41060;DHT22;26811;53.160;8.202;2022-09-16T17:11:49;11.60;99.90
41060;DHT22;26811;53.160;8.202;2022-09-16T17:16:51;11.50;99.90
41060;DHT22;26811;53.160;8.202;2022-09-16T17:21:52;11.50;99.90
41060;DHT22;26811;53.160;8.202;2022-09-16T17:26:53;11.50;99.90
41060;DHT22;26811;53.160;8.202;2022-09-16T17:31:54;11.50;99.90
41060;DHT22;26811;53.160;8.202;2022-09-16T17:36:56;11.40;99.90
41060;DHT22;26811;53.160;8.202;2022-09-16T17:41:57;11.40;99.90
41060;DHT22;26811;53.160;8.202;2022-09-16T17:46:59;11.40;99.90
41060;DHT22;26811;53.160;8.202;2022-09-16T17:52:00;11.50;99.90
41060;DHT22;26811;53.160;8.202;2022-09-16T17:57:00;11.50;99.90
41060;DHT22;26811;53.160;8.202;2022-09-16T18:02:01;11.50;99.90
41060;DHT22;26811;53.160;8.202;2022-09-16T18:07:01;11.50;99.90
41060;DHT22;26811;53.160;8.202;2022-09-16T18:12:02;11.60;99.90
41060;DHT22;26811;53.160;8.202;2022-09-16T18:17:03;11.50;99.90
41060;DHT22;26811;53.160;8.202;2022-09-16T18:22:03;11.60;99.90
41060;DHT22;26811;53.160;8.202;2022-09-16T18:27:04;11.60;99.90
41060;DHT22;26811;53.160;8.202;2022-09-16T18:32:06;11.60;99.90
41060;DHT22;26811;53.160;8.202;2022-09-16T18:37:06;11.60;99.90
41060;DHT22;26811;53.160;8.202;2022-09-16T18:42:07;11.50;99.90
41060;DHT22;26811;53.160;8.202;2022-09-16T18:47:07;11.50;99.90
41060;DHT22;26811;53.160;8.202;2022-09-16T18:52:08;11.60;99.90
41060;DHT22;26811;53.160;8.202;2022-09-16T18:57:09;11.60;99.90
41060;DHT22;26811;53.160;8.202;2022-09-16T19:02:10;11.60;99.90
41060;DHT22;26811;53.160;8.202;2022-09-16T19:07:13;11.60;99.90
41060;DHT22;26811;53.160;8.202;2022-09-16T19:12:13;11.70;99.90
41060;DHT22;26811;53.160;8.202;2022-09-16T19:17:14;11.70;99.90
41060;DHT22;26811;53.160;8.202;2022-09-16T19:22:16;11.70;99.90
41060;DHT22;26811;53.160;8.202;2022-09-16T19:27:17;11.70;99.90
41060;DHT22;26811;53.160;8.202;2022-09-16T19:32:17;11.70;99.90
41060;DHT22;26811;53.160;8.202;2022-09-16T19:37:18;11.80;99.90
41060;DHT22;26811;53.160;8.202;2022-09-16T19:42:19;11.80;99.90
41060;DHT22;26811;53.160;8.202;2022-09-16T19:47:19;11.80;99.90
41060;DHT22;26811;53.160;8.202;2022-09-16T19:52:20;11.80;99.90
41060;DHT22;26811;53.160;8.202;2022-09-16T19:57:21;11.80;99.90
41060;DHT22;26811;53.160;8.202;2022-09-16T20:02:21;11.80;99.90
41060;DHT22;26811;53.160;8.202;2022-09-16T20:07:22;11.80;99.90
41060;DHT22;26811;53.160;8.202;2022-09-16T20:12:26;11.70;99.90
41060;DHT22;26811;53.160;8.202;2022-09-16T20:17:27;11.70;99.90
41060;DHT22;26811;53.160;8.202;2022-09-16T20:22:27;11.70;99.90
41060;DHT22;26811;53.160;8.202;2022-09-16T20:27:28;11.80;99.90
41060;DHT22;26811;53.160;8.202;2022-09-16T20:32:28;11.90;99.90
41060;DHT22;26811;53.160;8.202;2022-09-16T20:37:29;11.80;99.90
41060;DHT22;26811;53.160;8.202;2022-09-16T20:42:29;11.80;99.90
41060;DHT22;26811;53.160;8.202;2022-09-16T20:47:30;11.80;99.90
41060;DHT22;26811;53.160;8.202;2022-09-16T20:52:31;11.80;99.90
41060;DHT22;26811;53.160;8.202;2022-09-16T20:57:32;11.80;99.90
41060;DHT22;26811;53.160;8.202;2022-09-16T21:02:33;11.80;99.90
41060;DHT22;26811;53.160;8.202;2022-09-16T21:07:34;11.80;99.90
41060;DHT22;26811;53.160;8.202;2022-09-16T21:12:35;11.80;99.90
41060;DHT22;26811;53.160;8.202;2022-09-16T21:17:36;11.80;99.90
41060;DHT22;26811;53.160;8.202;2022-09-16T21:22:36;11.80;99.90
41060;DHT22;26811;53.160;8.202;2022-09-16T21:27:38;11.90;99.90
41060;DHT22;26811;53.160;8.202;2022-09-16T21:32:38;11.90;99.90
41060;DHT22;26811;53.160;8.202;2022-09-16T21:37:39;11.90;99.90
41060;DHT22;26811;53.160;8.202;2022-09-16T21:42:39;11.80;99.90
41060;DHT22;26811;53.160;8.202;2022-09-16T21:47:40;11.70;99.90
41060;DHT22;26811;53.160;8.202;2022-09-16T21:52:41;11.60;99.90
41060;DHT22;26811;53.160;8.202;2022-09-16T21:57:42;11.60;99.90
41060;DHT22;26811;53.160;8.202;2022-09-16T22:02:42;11.50;99.90
41060;DHT22;26811;53.160;8.202;2022-09-16T22:07:42;11.50;99.90
41060;DHT22;26811;53.160;8.202;2022-09-16T22:12:43;11.50;99.90
41060;DHT22;26811;53.160;8.202;2022-09-16T22:17:44;11.40;99.90
41060;DHT22;26811;53.160;8.202;2022-09-16T22:22:44;11.40;99.90
41060;DHT22;26811;53.160;8.202;2022-09-16T22:27:45;11.40;99.90
41060;DHT22;26811;53.160;8.202;2022-09-16T22:32:45;11.30;99.90
41060;DHT22;26811;53.160;8.202;2022-09-16T22:37:49;11.30;99.90
41060;DHT22;26811;53.160;8.202;2022-09-16T22:42:49;11.10;99.90
41060;DHT22;26811;53.160;8.202;2022-09-16T22:47:50;11.10;99.90
41060;DHT22;26811;53.160;8.202;2022-09-16T22:52:51;11.00;99.90
41060;DHT22;26811;53.160;8.202;2022-09-16T22:57:51;11.00;99.90
41060;DHT22;26811;53.160;8.202;2022-09-16T23:02:52;11.10;99.90
41060;DHT22;26811;53.160;8.202;2022-09-16T23:07:52;11.10;99.90
41060;DHT22;26811;53.160;8.202;2022-09-16T23:12:53;11.10;99.90
41060;DHT22;26811;53.160;8.202;2022-09-16T23:17:54;11.10;99.90
41060;DHT22;26811;53.160;8.202;2022-09-16T23:22:55;11.20;99.90
41060;DHT22;26811;53.160;8.202;2022-09-16T23:27:55;11.20;99.90
41060;DHT22;26811;53.160;8.202;2022-09-16T23:32:56;11.20;99.90
41060;DHT22;26811;53.160;8.202;2022-09-16T23:37:56;11.30;99.90
41060;DHT22;26811;53.160;8.202;2022-09-16T23:42:57;11.20;99.90
41060;DHT22;26811;53.160;8.202;2022-09-16T23:47:57;11.10;99.90
41060;DHT22;26811;53.160;8.202;2022-09-16T23:52:58;11.00;99.90
41060;DHT22;26811;53.160;8.202;2022-09-16T23:57:59;10.90;99.90
